sensor_id;sensor_type;location;lat;lon;timestamp;pressure;altitude;pressure_sealevel;temperature;humidity
75740;BME280;64357;51.344;6.550;2022-11-02T00:00:34;101236.47;;;13.90;63.46
75740;BME280;64357;51.344;6.550;2022-11-02T00:03:00;101227.50;;;13.95;63.84
75740;BME280;64357;51.344;6.550;2022-11-02T00:16:06;101214.91;;;13.60;64.61
75740;BME280;64357;51.344;6.550;2022-11-02T00:18:33;101249.91;;;13.87;63.99
75740;BME280;64357;51.344;6.550;2022-11-02T00:21:06;101249.16;;;13.88;63.88
75740;BME280;64357;51.344;6.550;2022-11-02T00:23:33;101240.19;;;13.75;64.54
75740;BME280;64357;51.344;6.550;2022-11-02T00:26:00;101235.91;;;13.84;64.47
75740;BME280;64357;51.344;6.550;2022-11-02T00:28:27;101233.38;;;13.75;64.81
75740;BME280;64357;51.344;6.550;2022-11-02T00:30:53;101243.78;;;13.77;64.26
75740;BME280;64357;51.344;6.550;2022-11-02T00:33:21;101239.53;;;13.77;64.70
75740;BME280;64357;51.344;6.550;2022-11-02T00:35:49;101248.59;;;13.82;64.78
75740;BME280;64357;51.344;6.550;2022-11-02T00:38:14;101244.31;;;13.92;64.58
75740;BME280;64357;51.344;6.550;2022-11-02T00:40:41;101235.06;;;13.94;64.15
75740;BME280;64357;51.344;6.550;2022-11-02T00:43:07;101228.91;;;13.92;64.60
75740;BME280;64357;51.344;6.550;2022-11-02T00:45:35;101238.88;;;13.88;64.40
75740;BME280;64357;51.344;6.550;2022-11-02T00:48:00;101241.19;;;13.85;64.44
75740;BME280;64357;51.344;6.550;2022-11-02T00:50:25;101242.22;;;13.87;64.64
75740;BME280;64357;51.344;6.550;2022-11-02T00:52:51;101246.00;;;13.82;65.02
75740;BME280;64357;51.344;6.550;2022-11-02T00:55:16;101240.78;;;14.00;64.39
75740;BME280;64357;51.344;6.550;2022-11-02T00:57:42;101247.00;;;13.93;64.87
75740;BME280;64357;51.344;6.550;2022-11-02T01:00:11;101243.44;;;13.82;65.19
75740;BME280;64357;51.344;6.550;2022-11-02T01:02:37;101236.03;;;13.85;65.04
75740;BME280;64357;51.344;6.550;2022-11-02T01:05:03;101230.38;;;13.71;65.50
75740;BME280;64357;51.344;6.550;2022-11-02T01:07:29;101246.22;;;13.75;65.90
75740;BME280;64357;51.344;6.550;2022-11-02T01:09:54;101245.31;;;13.75;65.53
75740;BME280;64357;51.344;6.550;2022-11-02T01:12:20;101254.38;;;13.71;65.73
75740;BME280;64357;51.344;6.550;2022-11-02T01:14:48;101259.69;;;13.73;65.61
75740;BME280;64357;51.344;6.550;2022-11-02T01:17:19;101248.53;;;13.64;66.24
75740;BME280;64357;51.344;6.550;2022-11-02T01:19:44;101255.34;;;13.63;66.13
75740;BME280;64357;51.344;6.550;2022-11-02T01:22:10;101248.28;;;13.60;66.29
75740;BME280;64357;51.344;6.550;2022-11-02T01:24:35;101260.22;;;13.51;66.19
75740;BME280;64357;51.344;6.550;2022-11-02T01:27:03;101254.00;;;13.58;66.37
75740;BME280;64357;51.344;6.550;2022-11-02T01:29:28;101255.72;;;13.49;66.53
75740;BME280;64357;51.344;6.550;2022-11-02T01:31:54;101247.91;;;13.39;66.71
75740;BME280;64357;51.344;6.550;2022-11-02T01:34:19;101256.81;;;13.33;67.18
75740;BME280;64357;51.344;6.550;2022-11-02T01:36:45;101247.00;;;13.38;67.36
75740;BME280;64357;51.344;6.550;2022-11-02T01:39:12;101252.91;;;13.28;67.27
75740;BME280;64357;51.344;6.550;2022-11-02T01:41:38;101266.78;;;13.30;67.90
75740;BME280;64357;51.344;6.550;2022-11-02T01:46:50;101251.63;;;13.42;67.12
75740;BME280;64357;51.344;6.550;2022-11-02T01:49:18;101259.09;;;13.30;67.49
75740;BME280;64357;51.344;6.550;2022-11-02T01:52:48;101262.59;;;13.31;67.58
75740;BME280;64357;51.344;6.550;2022-11-02T01:55:13;101264.06;;;13.29;67.88
75740;BME280;64357;51.344;6.550;2022-11-02T01:57:46;101263.63;;;13.24;68.24
75740;BME280;64357;51.344;6.550;2022-11-02T02:00:15;101252.94;;;13.20;68.21
75740;BME280;64357;51.344;6.550;2022-11-02T02:05:14;101263.50;;;13.23;68.43
75740;BME280;64357;51.344;6.550;2022-11-02T02:07:45;101266.66;;;13.20;68.67
75740;BME280;64357;51.344;6.550;2022-11-02T02:10:11;101257.16;;;13.28;68.20
75740;BME280;64357;51.344;6.550;2022-11-02T02:12:38;101260.34;;;13.25;68.52
75740;BME280;64357;51.344;6.550;2022-11-02T02:15:05;101255.66;;;13.21;68.55
75740;BME280;64357;51.344;6.550;2022-11-02T02:17:53;101262.88;;;13.17;69.11
75740;BME280;64357;51.344;6.550;2022-11-02T02:23:36;101262.72;;;13.24;68.56
75740;BME280;64357;51.344;6.550;2022-11-02T02:34:19;101262.06;;;13.44;68.17
75740;BME280;64357;51.344;6.550;2022-11-02T02:36:47;101258.03;;;13.37;68.22
75740;BME280;64357;51.344;6.550;2022-11-02T02:41:45;101256.81;;;13.33;68.68
75740;BME280;64357;51.344;6.550;2022-11-02T02:44:16;101273.38;;;13.46;67.81
75740;BME280;64357;51.344;6.550;2022-11-02T02:46:54;101269.34;;;13.39;68.42
75740;BME280;64357;51.344;6.550;2022-11-02T02:49:30;101268.13;;;13.36;68.61
75740;BME280;64357;51.344;6.550;2022-11-02T02:52:01;101262.59;;;13.31;68.76
75740;BME280;64357;51.344;6.550;2022-11-02T02:54:35;101272.97;;;13.32;68.32
75740;BME280;64357;51.344;6.550;2022-11-02T02:57:09;101271.06;;;13.21;68.65
75740;BME280;64357;51.344;6.550;2022-11-02T02:59:42;101268.50;;;13.21;68.52
75740;BME280;64357;51.344;6.550;2022-11-02T03:02:15;101273.13;;;13.17;68.47
75740;BME280;64357;51.344;6.550;2022-11-02T03:04:43;101280.56;;;13.05;69.42
75740;BME280;64357;51.344;6.550;2022-11-02T03:07:11;101282.38;;;13.06;69.39
75740;BME280;64357;51.344;6.550;2022-11-02T03:09:50;101276.91;;;13.12;68.87
75740;BME280;64357;51.344;6.550;2022-11-02T03:12:32;101276.97;;;13.03;69.20
75740;BME280;64357;51.344;6.550;2022-11-02T03:28:37;101296.13;;;12.72;69.89
75740;BME280;64357;51.344;6.550;2022-11-02T03:31:10;101301.56;;;12.58;70.94
75740;BME280;64357;51.344;6.550;2022-11-02T03:33:59;101307.31;;;12.72;69.79
75740;BME280;64357;51.344;6.550;2022-11-02T03:36:43;101308.34;;;12.74;69.83
75740;BME280;64357;51.344;6.550;2022-11-02T03:39:11;101310.47;;;12.70;70.24
75740;BME280;64357;51.344;6.550;2022-11-02T03:41:44;101317.56;;;12.55;70.44
75740;BME280;64357;51.344;6.550;2022-11-02T03:44:14;101321.31;;;12.59;70.16
75740;BME280;64357;51.344;6.550;2022-11-02T03:46:44;101320.25;;;12.48;70.41
75740;BME280;64357;51.344;6.550;2022-11-02T03:49:15;101337.59;;;12.59;70.24
75740;BME280;64357;51.344;6.550;2022-11-02T03:51:43;101325.06;;;12.53;70.31
75740;BME280;64357;51.344;6.550;2022-11-02T03:54:24;101340.03;;;12.49;70.41
75740;BME280;64357;51.344;6.550;2022-11-02T03:56:56;101334.91;;;12.49;70.65
75740;BME280;64357;51.344;6.550;2022-11-02T03:59:23;101340.91;;;12.49;70.18
75740;BME280;64357;51.344;6.550;2022-11-02T04:01:50;101341.81;;;12.50;70.35
75740;BME280;64357;51.344;6.550;2022-11-02T04:04:16;101341.34;;;12.54;70.33
75740;BME280;64357;51.344;6.550;2022-11-02T04:06:45;101337.28;;;12.39;70.50
75740;BME280;64357;51.344;6.550;2022-11-02T04:09:17;101340.75;;;12.39;70.19
75740;BME280;64357;51.344;6.550;2022-11-02T04:11:43;101346.78;;;12.40;70.44
75740;BME280;64357;51.344;6.550;2022-11-02T04:14:27;101346.91;;;12.41;70.57
75740;BME280;64357;51.344;6.550;2022-11-02T04:17:07;101357.16;;;12.41;70.10
75740;BME280;64357;51.344;6.550;2022-11-02T04:19:51;101362.16;;;12.48;69.94
75740;BME280;64357;51.344;6.550;2022-11-02T04:22:18;101360.50;;;12.58;69.80
75740;BME280;64357;51.344;6.550;2022-11-02T04:25:05;101362.63;;;12.53;69.70
75740;BME280;64357;51.344;6.550;2022-11-02T04:27:43;101369.22;;;12.42;70.42
75740;BME280;64357;51.344;6.550;2022-11-02T04:30:09;101374.97;;;12.48;69.78
75740;BME280;64357;51.344;6.550;2022-11-02T04:32:46;101374.19;;;12.41;69.59
75740;BME280;64357;51.344;6.550;2022-11-02T04:35:31;101375.25;;;12.43;70.22
75740;BME280;64357;51.344;6.550;2022-11-02T04:37:57;101382.78;;;12.33;70.18
75740;BME280;64357;51.344;6.550;2022-11-02T04:40:44;101387.16;;;12.42;69.97
75740;BME280;64357;51.344;6.550;2022-11-02T04:43:09;101396.69;;;12.43;69.54
75740;BME280;64357;51.344;6.550;2022-11-02T04:45:37;101386.09;;;12.40;69.68
75740;BME280;64357;51.344;6.550;2022-11-02T04:48:07;101389.44;;;12.39;69.87
75740;BME280;64357;51.344;6.550;2022-11-02T04:50:34;101389.09;;;12.36;69.58
75740;BME280;64357;51.344;6.550;2022-11-02T04:53:01;101403.44;;;12.43;69.33
75740;BME280;64357;51.344;6.550;2022-11-02T04:55:28;101394.22;;;12.36;69.62
75740;BME280;64357;51.344;6.550;2022-11-02T04:57:53;101404.94;;;12.41;69.03
75740;BME280;64357;51.344;6.550;2022-11-02T05:00:19;101393.19;;;12.43;69.06
75740;BME280;64357;51.344;6.550;2022-11-02T05:02:46;101418.53;;;12.48;69.19
75740;BME280;64357;51.344;6.550;2022-11-02T05:05:15;101414.00;;;12.46;69.06
75740;BME280;64357;51.344;6.550;2022-11-02T05:07:41;101412.97;;;12.52;68.80
75740;BME280;64357;51.344;6.550;2022-11-02T05:10:07;101417.00;;;12.42;69.05
75740;BME280;64357;51.344;6.550;2022-11-02T05:12:33;101416.09;;;12.41;69.26
75740;BME280;64357;51.344;6.550;2022-11-02T05:14:58;101409.78;;;12.38;69.41
75740;BME280;64357;51.344;6.550;2022-11-02T05:17:27;101422.25;;;12.26;70.18
75740;BME280;64357;51.344;6.550;2022-11-02T05:19:52;101412.28;;;12.29;69.32
75740;BME280;64357;51.344;6.550;2022-11-02T05:22:20;101423.59;;;12.22;69.96
75740;BME280;64357;51.344;6.550;2022-11-02T05:24:45;101425.09;;;12.20;70.17
75740;BME280;64357;51.344;6.550;2022-11-02T05:27:11;101422.69;;;12.22;70.10
75740;BME280;64357;51.344;6.550;2022-11-02T05:29:36;101426.13;;;12.14;69.76
75740;BME280;64357;51.344;6.550;2022-11-02T05:32:01;101428.56;;;12.21;70.02
75740;BME280;64357;51.344;6.550;2022-11-02T05:34:29;101432.56;;;12.10;69.92
75740;BME280;64357;51.344;6.550;2022-11-02T05:36:54;101423.38;;;12.12;69.56
75740;BME280;64357;51.344;6.550;2022-11-02T05:39:22;101422.63;;;12.13;69.70
75740;BME280;64357;51.344;6.550;2022-11-02T05:41:50;101438.25;;;11.99;70.46
75740;BME280;64357;51.344;6.550;2022-11-02T05:44:20;101442.81;;;12.10;69.69
75740;BME280;64357;51.344;6.550;2022-11-02T05:46:45;101449.91;;;12.13;70.13
75740;BME280;64357;51.344;6.550;2022-11-02T05:49:10;101427.59;;;12.03;70.43
75740;BME280;64357;51.344;6.550;2022-11-02T05:51:38;101446.53;;;11.96;70.53
75740;BME280;64357;51.344;6.550;2022-11-02T05:54:03;101442.88;;;11.94;70.17
75740;BME280;64357;51.344;6.550;2022-11-02T05:56:29;101446.88;;;12.08;69.74
75740;BME280;64357;51.344;6.550;2022-11-02T05:58:56;101445.50;;;12.03;69.75
75740;BME280;64357;51.344;6.550;2022-11-02T06:01:22;101468.81;;;11.97;70.04
75740;BME280;64357;51.344;6.550;2022-11-02T06:03:47;101460.22;;;11.97;70.07
75740;BME280;64357;51.344;6.550;2022-11-02T06:06:13;101471.88;;;12.02;69.68
75740;BME280;64357;51.344;6.550;2022-11-02T06:08:38;101479.00;;;11.89;69.95
75740;BME280;64357;51.344;6.550;2022-11-02T06:11:09;101493.59;;;11.90;69.94
75740;BME280;64357;51.344;6.550;2022-11-02T06:13:35;101484.22;;;11.82;70.27
75740;BME280;64357;51.344;6.550;2022-11-02T06:16:01;101497.41;;;11.93;69.81
75740;BME280;64357;51.344;6.550;2022-11-02T06:18:29;101497.38;;;11.85;69.73
75740;BME280;64357;51.344;6.550;2022-11-02T06:20:58;101515.16;;;11.92;69.63
75740;BME280;64357;51.344;6.550;2022-11-02T06:23:24;101515.16;;;11.92;69.36
75740;BME280;64357;51.344;6.550;2022-11-02T06:25:54;101518.50;;;11.91;69.28
75740;BME280;64357;51.344;6.550;2022-11-02T06:28:23;101518.94;;;11.95;69.28
75740;BME280;64357;51.344;6.550;2022-11-02T06:30:48;101516.94;;;12.09;68.75
75740;BME280;64357;51.344;6.550;2022-11-02T06:33:15;101532.34;;;12.17;68.27
75740;BME280;64357;51.344;6.550;2022-11-02T06:35:47;101524.97;;;12.20;68.06
75740;BME280;64357;51.344;6.550;2022-11-02T06:38:18;101531.91;;;12.21;68.49
75740;BME280;64357;51.344;6.550;2022-11-02T06:43:19;101543.84;;;12.30;68.24
75740;BME280;64357;51.344;6.550;2022-11-02T06:45:44;101549.47;;;12.34;67.64
75740;BME280;64357;51.344;6.550;2022-11-02T06:48:10;101554.69;;;12.27;67.86
75740;BME280;64357;51.344;6.550;2022-11-02T06:50:36;101562.13;;;12.33;68.42
75740;BME280;64357;51.344;6.550;2022-11-02T06:53:03;101551.06;;;12.25;68.31
75740;BME280;64357;51.344;6.550;2022-11-02T06:55:29;101574.44;;;12.28;68.37
75740;BME280;64357;51.344;6.550;2022-11-02T06:57:54;101567.78;;;12.21;68.12
75740;BME280;64357;51.344;6.550;2022-11-02T07:00:20;101573.97;;;12.23;68.81
75740;BME280;64357;51.344;6.550;2022-11-02T07:02:45;101582.41;;;12.22;68.41
75740;BME280;64357;51.344;6.550;2022-11-02T07:05:22;101592.38;;;12.28;68.08
75740;BME280;64357;51.344;6.550;2022-11-02T07:07:47;101606.69;;;12.26;68.64
75740;BME280;64357;51.344;6.550;2022-11-02T07:10:13;101601.19;;;12.39;68.03
75740;BME280;64357;51.344;6.550;2022-11-02T07:12:38;101609.44;;;12.36;67.95
75740;BME280;64357;51.344;6.550;2022-11-02T07:15:04;101615.16;;;12.34;68.03
75740;BME280;64357;51.344;6.550;2022-11-02T07:17:37;101616.03;;;12.25;68.24
75740;BME280;64357;51.344;6.550;2022-11-02T07:20:02;101628.47;;;12.14;68.47
75740;BME280;64357;51.344;6.550;2022-11-02T07:22:36;101628.34;;;12.21;68.00
75740;BME280;64357;51.344;6.550;2022-11-02T07:25:02;101633.88;;;12.17;67.68
75740;BME280;64357;51.344;6.550;2022-11-02T07:27:29;101643.88;;;12.22;68.06
75740;BME280;64357;51.344;6.550;2022-11-02T07:29:55;101649.09;;;12.15;67.82
75740;BME280;64357;51.344;6.550;2022-11-02T07:32:20;101656.34;;;12.19;68.00
75740;BME280;64357;51.344;6.550;2022-11-02T07:34:45;101665.88;;;12.20;67.77
75740;BME280;64357;51.344;6.550;2022-11-02T07:37:11;101668.44;;;12.20;67.88
75740;BME280;64357;51.344;6.550;2022-11-02T07:39:38;101665.28;;;12.23;67.81
75740;BME280;64357;51.344;6.550;2022-11-02T07:42:04;101674.47;;;12.21;67.72
75740;BME280;64357;51.344;6.550;2022-11-02T07:44:32;101691.47;;;12.20;68.13
75740;BME280;64357;51.344;6.550;2022-11-02T07:46:57;101692.44;;;12.30;67.50
75740;BME280;64357;51.344;6.550;2022-11-02T07:49:22;101689.31;;;12.32;67.43
75740;BME280;64357;51.344;6.550;2022-11-02T07:51:50;101695.50;;;12.34;67.45
75740;BME280;64357;51.344;6.550;2022-11-02T07:54:15;101693.16;;;12.44;66.85
75740;BME280;64357;51.344;6.550;2022-11-02T07:56:43;101701.38;;;12.33;67.14
75740;BME280;64357;51.344;6.550;2022-11-02T07:59:10;101712.03;;;12.29;67.51
75740;BME280;64357;51.344;6.550;2022-11-02T08:01:36;101711.88;;;12.27;67.14
75740;BME280;64357;51.344;6.550;2022-11-02T08:04:04;101715.72;;;12.40;67.29
75740;BME280;64357;51.344;6.550;2022-11-02T08:06:31;101716.38;;;12.46;66.72
75740;BME280;64357;51.344;6.550;2022-11-02T08:09:00;101723.47;;;12.48;66.62
75740;BME280;64357;51.344;6.550;2022-11-02T08:11:28;101724.22;;;12.47;67.00
75740;BME280;64357;51.344;6.550;2022-11-02T08:13:54;101734.97;;;12.52;66.61
75740;BME280;64357;51.344;6.550;2022-11-02T08:16:19;101726.78;;;12.47;66.72
75740;BME280;64357;51.344;6.550;2022-11-02T08:18:44;101729.09;;;12.53;66.65
75740;BME280;64357;51.344;6.550;2022-11-02T08:21:13;101727.03;;;12.58;66.23
75740;BME280;64357;51.344;6.550;2022-11-02T08:23:41;101730.59;;;12.51;66.76
75740;BME280;64357;51.344;6.550;2022-11-02T08:26:06;101725.84;;;12.63;66.42
75740;BME280;64357;51.344;6.550;2022-11-02T08:28:32;101726.16;;;12.66;66.89
75740;BME280;64357;51.344;6.550;2022-11-02T08:31:03;101732.69;;;12.71;65.87
75740;BME280;64357;51.344;6.550;2022-11-02T08:33:28;101733.31;;;12.77;65.78
75740;BME280;64357;51.344;6.550;2022-11-02T08:36:00;101730.94;;;12.78;65.83
75740;BME280;64357;51.344;6.550;2022-11-02T08:38:25;101741.91;;;12.77;65.90
75740;BME280;64357;51.344;6.550;2022-11-02T08:40:54;101741.09;;;12.86;65.41
75740;BME280;64357;51.344;6.550;2022-11-02T08:43:19;101740.38;;;12.95;65.73
75740;BME280;64357;51.344;6.550;2022-11-02T08:45:44;101751.94;;;13.07;64.93
75740;BME280;64357;51.344;6.550;2022-11-02T08:48:22;101745.41;;;13.02;64.91
75740;BME280;64357;51.344;6.550;2022-11-02T08:50:47;101738.50;;;13.34;64.95
75740;BME280;64357;51.344;6.550;2022-11-02T08:53:13;101751.03;;;13.40;64.26
75740;BME280;64357;51.344;6.550;2022-11-02T08:55:41;101753.25;;;13.28;64.62
75740;BME280;64357;51.344;6.550;2022-11-02T08:58:07;101747.56;;;13.40;64.61
75740;BME280;64357;51.344;6.550;2022-11-02T09:00:33;101752.09;;;13.42;64.21
75740;BME280;64357;51.344;6.550;2022-11-02T09:03:05;101746.25;;;13.52;64.22
75740;BME280;64357;51.344;6.550;2022-11-02T09:05:33;101755.97;;;13.63;63.65
75740;BME280;64357;51.344;6.550;2022-11-02T09:08:03;101753.72;;;13.75;62.87
75740;BME280;64357;51.344;6.550;2022-11-02T09:10:32;101765.56;;;13.48;63.52
75740;BME280;64357;51.344;6.550;2022-11-02T09:12:59;101770.41;;;13.45;63.13
75740;BME280;64357;51.344;6.550;2022-11-02T09:15:25;101765.75;;;13.50;63.82
75740;BME280;64357;51.344;6.550;2022-11-02T09:17:53;101758.34;;;13.53;63.81
75740;BME280;64357;51.344;6.550;2022-11-02T09:20:25;101773.03;;;13.63;63.38
75740;BME280;64357;51.344;6.550;2022-11-02T09:22:53;101774.69;;;13.62;62.74
75740;BME280;64357;51.344;6.550;2022-11-02T09:25:19;101770.03;;;13.67;62.65
75740;BME280;64357;51.344;6.550;2022-11-02T09:27:44;101791.78;;;13.70;62.62
75740;BME280;64357;51.344;6.550;2022-11-02T09:30:11;101792.38;;;13.68;62.66
75740;BME280;64357;51.344;6.550;2022-11-02T09:32:37;101790.56;;;13.67;62.44
75740;BME280;64357;51.344;6.550;2022-11-02T09:35:08;101780.69;;;13.54;62.66
75740;BME280;64357;51.344;6.550;2022-11-02T09:37:34;101789.34;;;13.72;62.36
75740;BME280;64357;51.344;6.550;2022-11-02T09:39:59;101785.59;;;13.68;62.24
75740;BME280;64357;51.344;6.550;2022-11-02T09:43:17;101790.25;;;13.64;61.70
75740;BME280;64357;51.344;6.550;2022-11-02T09:45:19;101789.91;;;13.52;62.18
75740;BME280;64357;51.344;6.550;2022-11-02T09:47:57;101784.47;;;13.57;61.90
75740;BME280;64357;51.344;6.550;2022-11-02T09:50:37;101790.88;;;13.70;60.65
75740;BME280;64357;51.344;6.550;2022-11-02T09:53:06;101791.47;;;13.67;60.33
75740;BME280;64357;51.344;6.550;2022-11-02T09:55:37;101792.31;;;13.50;61.26
75740;BME280;64357;51.344;6.550;2022-11-02T09:58:13;101800.78;;;13.49;61.27
75740;BME280;64357;51.344;6.550;2022-11-02T10:00:40;101796.63;;;13.34;60.77
75740;BME280;64357;51.344;6.550;2022-11-02T10:03:35;101814.56;;;13.34;60.90
75740;BME280;64357;51.344;6.550;2022-11-02T10:06:12;101804.94;;;13.40;61.29
75740;BME280;64357;51.344;6.550;2022-11-02T10:08:54;101815.19;;;13.31;60.23
75740;BME280;64357;51.344;6.550;2022-11-02T10:14:13;101808.00;;;13.45;59.26
75740;BME280;64357;51.344;6.550;2022-11-02T10:19:31;101809.63;;;13.77;58.18
75740;BME280;64357;51.344;6.550;2022-11-02T10:21:59;101793.97;;;13.92;58.06
75740;BME280;64357;51.344;6.550;2022-11-02T10:24:34;101795.97;;;14.11;57.68
75740;BME280;64357;51.344;6.550;2022-11-02T10:27:13;101806.84;;;14.09;57.20
75740;BME280;64357;51.344;6.550;2022-11-02T10:30:08;101814.13;;;14.13;56.34
75740;BME280;64357;51.344;6.550;2022-11-02T10:32:37;101805.06;;;14.25;56.50
75740;BME280;64357;51.344;6.550;2022-11-02T10:35:15;101808.09;;;14.21;56.91
75740;BME280;64357;51.344;6.550;2022-11-02T10:37:49;101812.59;;;14.15;57.49
75740;BME280;64357;51.344;6.550;2022-11-02T10:40:25;101811.69;;;14.23;57.19
75740;BME280;64357;51.344;6.550;2022-11-02T10:48:54;101818.34;;;14.30;54.79
75740;BME280;64357;51.344;6.550;2022-11-02T10:51:24;101816.84;;;14.23;54.47
75740;BME280;64357;51.344;6.550;2022-11-02T10:53:51;101825.34;;;14.31;54.11
75740;BME280;64357;51.344;6.550;2022-11-02T10:56:20;101820.19;;;14.39;53.69
75740;BME280;64357;51.344;6.550;2022-11-02T11:01:25;101827.28;;;14.42;53.28
75740;BME280;64357;51.344;6.550;2022-11-02T11:06:38;101835.19;;;15.13;51.40
75740;BME280;64357;51.344;6.550;2022-11-02T11:09:05;101836.81;;;16.11;48.86
75740;BME280;64357;51.344;6.550;2022-11-02T11:11:36;101824.09;;;17.07;46.99
75740;BME280;64357;51.344;6.550;2022-11-02T11:16:43;101827.31;;;17.33;46.06
75740;BME280;64357;51.344;6.550;2022-11-02T11:21:44;101823.84;;;17.43;45.83
75740;BME280;64357;51.344;6.550;2022-11-02T11:24:34;101817.19;;;17.55;45.66
75740;BME280;64357;51.344;6.550;2022-11-02T11:29:39;101818.50;;;17.60;45.41
75740;BME280;64357;51.344;6.550;2022-11-02T11:32:14;101813.03;;;17.57;44.22
75740;BME280;64357;51.344;6.550;2022-11-02T11:35:06;101821.25;;;17.72;44.47
75740;BME280;64357;51.344;6.550;2022-11-02T11:37:32;101820.00;;;18.28;43.85
75740;BME280;64357;51.344;6.550;2022-11-02T11:40:02;101820.25;;;18.10;44.06
75740;BME280;64357;51.344;6.550;2022-11-02T11:42:35;101822.72;;;18.39;43.38
75740;BME280;64357;51.344;6.550;2022-11-02T11:45:05;101819.69;;;17.35;45.69
75740;BME280;64357;51.344;6.550;2022-11-02T11:47:39;101812.66;;;17.63;44.76
75740;BME280;64357;51.344;6.550;2022-11-02T11:50:12;101824.41;;;17.49;45.26
75740;BME280;64357;51.344;6.550;2022-11-02T11:52:38;101819.69;;;17.35;45.05
75740;BME280;64357;51.344;6.550;2022-11-02T11:55:27;101828.84;;;17.31;45.46
75740;BME280;64357;51.344;6.550;2022-11-02T12:00:38;101826.28;;;17.41;46.05
75740;BME280;64357;51.344;6.550;2022-11-02T12:03:11;101814.41;;;17.93;45.28
75740;BME280;64357;51.344;6.550;2022-11-02T12:08:33;101806.03;;;18.26;44.74
75740;BME280;64357;51.344;6.550;2022-11-02T12:29:55;101811.69;;;16.46;49.21
75740;BME280;64357;51.344;6.550;2022-11-02T12:40:32;101813.34;;;16.26;49.14
75740;BME280;64357;51.344;6.550;2022-11-02T12:46:01;101807.00;;;16.23;50.17
75740;BME280;64357;51.344;6.550;2022-11-02T12:51:23;101800.94;;;16.41;49.89
75740;BME280;64357;51.344;6.550;2022-11-02T12:54:02;101805.84;;;16.76;49.40
75740;BME280;64357;51.344;6.550;2022-11-02T12:56:51;101793.00;;;16.30;50.67
75740;BME280;64357;51.344;6.550;2022-11-02T12:59:24;101797.03;;;16.17;51.28
75740;BME280;64357;51.344;6.550;2022-11-02T13:02:01;101783.88;;;15.87;52.54
75740;BME280;64357;51.344;6.550;2022-11-02T13:04:31;101789.41;;;16.00;52.79
75740;BME280;64357;51.344;6.550;2022-11-02T13:07:04;101787.66;;;15.90;52.86
75740;BME280;64357;51.344;6.550;2022-11-02T13:09:34;101781.31;;;15.87;53.25
75740;BME280;64357;51.344;6.550;2022-11-02T13:12:12;101774.81;;;16.09;52.79
75740;BME280;64357;51.344;6.550;2022-11-02T13:14:41;101774.59;;;16.35;52.03
75740;BME280;64357;51.344;6.550;2022-11-02T13:19:47;101765.47;;;16.20;51.38
75740;BME280;64357;51.344;6.550;2022-11-02T13:22:17;101766.28;;;15.64;52.46
75740;BME280;64357;51.344;6.550;2022-11-02T13:24:54;101772.81;;;15.52;53.56
75740;BME280;64357;51.344;6.550;2022-11-02T13:27:31;101783.31;;;15.36;53.92
75740;BME280;64357;51.344;6.550;2022-11-02T13:30:01;101772.28;;;15.28;54.51
75740;BME280;64357;51.344;6.550;2022-11-02T13:32:40;101770.03;;;15.23;54.69
75740;BME280;64357;51.344;6.550;2022-11-02T13:35:32;101765.53;;;15.20;54.96
75740;BME280;64357;51.344;6.550;2022-11-02T13:38:23;101768.59;;;15.07;55.72
75740;BME280;64357;51.344;6.550;2022-11-02T13:41:17;101769.19;;;15.05;55.67
75740;BME280;64357;51.344;6.550;2022-11-02T13:49:21;101765.97;;;15.16;55.94
75740;BME280;64357;51.344;6.550;2022-11-02T13:51:53;101761.16;;;15.19;55.12
75740;BME280;64357;51.344;6.550;2022-11-02T13:54:25;101764.75;;;15.12;55.72
75740;BME280;64357;51.344;6.550;2022-11-02T13:56:58;101759.88;;;15.24;55.43
75740;BME280;64357;51.344;6.550;2022-11-02T13:59:35;101751.59;;;15.18;55.30
75740;BME280;64357;51.344;6.550;2022-11-02T14:02:09;101749.81;;;15.08;55.53
75740;BME280;64357;51.344;6.550;2022-11-02T14:04:38;101743.47;;;15.05;55.54
75740;BME280;64357;51.344;6.550;2022-11-02T14:10:12;101746.75;;;15.21;54.95
75740;BME280;64357;51.344;6.550;2022-11-02T14:12:46;101753.09;;;15.25;55.66
75740;BME280;64357;51.344;6.550;2022-11-02T14:25:55;101738.75;;;15.01;54.71
75740;BME280;64357;51.344;6.550;2022-11-02T14:42:00;101728.38;;;14.82;55.29
75740;BME280;64357;51.344;6.550;2022-11-02T14:47:10;101727.63;;;14.83;55.72
75740;BME280;64357;51.344;6.550;2022-11-02T14:50:02;101724.34;;;14.66;56.12
75740;BME280;64357;51.344;6.550;2022-11-02T14:52:34;101717.69;;;14.51;56.67
75740;BME280;64357;51.344;6.550;2022-11-02T14:55:05;101718.28;;;14.57;55.86
75740;BME280;64357;51.344;6.550;2022-11-02T14:57:38;101723.00;;;14.61;55.52
75740;BME280;64357;51.344;6.550;2022-11-02T15:00:37;101720.28;;;14.51;55.88
75740;BME280;64357;51.344;6.550;2022-11-02T15:06:11;101712.09;;;14.55;55.49
75740;BME280;64357;51.344;6.550;2022-11-02T15:25:14;101697.28;;;14.09;57.40
75740;BME280;64357;51.344;6.550;2022-11-02T15:27:43;101694.41;;;13.98;58.42
75740;BME280;64357;51.344;6.550;2022-11-02T15:30:14;101699.97;;;13.85;58.83
75740;BME280;64357;51.344;6.550;2022-11-02T15:32:46;101699.97;;;13.94;58.44
75740;BME280;64357;51.344;6.550;2022-11-02T15:35:17;101701.16;;;13.88;58.33
75740;BME280;64357;51.344;6.550;2022-11-02T15:37:43;101705.25;;;13.78;59.06
75740;BME280;64357;51.344;6.550;2022-11-02T15:40:20;101707.50;;;13.75;58.86
75740;BME280;64357;51.344;6.550;2022-11-02T15:45:30;101699.16;;;13.60;59.31
75740;BME280;64357;51.344;6.550;2022-11-02T15:48:25;101706.25;;;13.54;59.47
75740;BME280;64357;51.344;6.550;2022-11-02T15:56:24;101694.34;;;13.54;59.42
75740;BME280;64357;51.344;6.550;2022-11-02T15:59:29;101696.38;;;13.32;60.43
75740;BME280;64357;51.344;6.550;2022-11-02T16:04:29;101687.94;;;13.42;59.50